PWSweather.com
Personal Weather Stations
Station Observations
KNYSALTS1
Hessville, Fort Plain, NY

HessvilleFort Plain, NY

Lat: 42.86430704, Lon: -74.72141266

Elevation: 1041

Station Type: Davis Vantage Pro2 Plus

https://indiantrailweather.com

Latest ConditionsUpdated 6:10:12 PM EDT Friday, Oct 18, 2019
Currently Today's Max Today's Min Today's Average
Temperature 42.5°F5.8°C 45.1°F7.3°C 41.9°F5.5°C 43.3°F6.3°C
Dew Point 37.7°F3.2°C 41.8°F5.4°C 37.4°F3.0°C 39.8°F4.3°C
Winds 9.2 mph WNW14.8 kmh WNW 19.6 mph -31.5 kmh - - 11.5 mph 18.5 kmh
Wind Gusts 11.5 mph18.5 kmh 38.0 mph61.2 kmh - -
Humidity 83% 93% 81% 88%
Pressure 29.99 in1015.6 mb 29.99 in1015.6 mb 29.61 in1002.7 mb -
Precipitation - 0.01 in0.3 mm - -
Hour Temp Dew Point Humidity Winds Wind Gusts Pressure Precip Precip Rate Daily Precip Total
06:10 PM 42.5°F5.8°C 37.7°F3.2°C 83% 9.2 mph WNW14.8 kmh WNW 11.5 mph18.5 kmh 29.99 in1015.6 mb - 0.00 in0.0 mm 0.01 in0.3 mm
06:00 PM 42.6°F5.9°C 37.8°F3.2°C 83% 9.2 mph NW14.8 kmh NW 17.3 mph27.8 kmh 29.99 in1015.6 mb - 0.00 in0.0 mm 0.01 in0.3 mm
05:50 PM 42.7°F5.9°C 37.6°F3.1°C 82% 11.5 mph WNW18.5 kmh WNW 16.1 mph25.9 kmh 29.98 in1015.2 mb - 0.00 in0.0 mm 0.01 in0.3 mm
05:40 PM 42.8°F6.0°C 37.4°F3.0°C 81% 9.2 mph WNW14.8 kmh WNW 17.3 mph27.8 kmh 29.98 in1015.2 mb - 0.00 in0.0 mm 0.01 in0.3 mm
05:30 PM 43.0°F6.1°C 37.6°F3.1°C 81% 10.4 mph WNW16.7 kmh WNW 16.1 mph25.9 kmh 29.98 in1015.2 mb - 0.00 in0.0 mm 0.01 in0.3 mm
05:20 PM 43.2°F6.2°C 37.8°F3.2°C 81% 11.5 mph WNW18.5 kmh WNW 17.3 mph27.8 kmh 29.98 in1015.2 mb - 0.00 in0.0 mm 0.01 in0.3 mm
05:10 PM 43.4°F6.3°C 38.0°F3.3°C 81% 11.5 mph W18.5 kmh W 19.6 mph31.5 kmh 29.97 in1014.9 mb - 0.00 in0.0 mm 0.01 in0.3 mm
05:00 PM 43.5°F6.4°C 38.1°F3.4°C 81% 8.1 mph WNW13.0 kmh WNW 16.1 mph25.9 kmh 29.97 in1014.9 mb - 0.00 in0.0 mm 0.01 in0.3 mm
04:50 PM 43.6°F6.4°C 38.2°F3.4°C 81% 10.4 mph W16.7 kmh W 24.2 mph38.9 kmh 29.97 in1014.9 mb - 0.00 in0.0 mm 0.01 in0.3 mm
04:40 PM 43.7°F6.5°C 38.2°F3.4°C 81% 12.7 mph WNW20.4 kmh WNW 23.0 mph37.0 kmh 29.96 in1014.6 mb - 0.00 in0.0 mm 0.01 in0.3 mm
04:30 PM 43.9°F6.6°C 38.5°F3.6°C 81% 13.8 mph WNW22.2 kmh WNW 18.4 mph29.6 kmh 29.96 in1014.6 mb - 0.00 in0.0 mm 0.01 in0.3 mm
04:20 PM 44.2°F6.8°C 38.8°F3.8°C 81% 8.1 mph WNW13.0 kmh WNW 13.8 mph22.2 kmh 29.95 in1014.2 mb - 0.00 in0.0 mm 0.01 in0.3 mm
04:10 PM 44.2°F6.8°C 38.7°F3.7°C 81% 11.5 mph WNW18.5 kmh WNW 19.6 mph31.5 kmh 29.95 in1014.2 mb - 0.00 in0.0 mm 0.01 in0.3 mm
04:00 PM 44.2°F6.8°C 39.1°F3.9°C 82% 8.1 mph W13.0 kmh W 13.8 mph22.2 kmh 29.95 in1014.2 mb - 0.00 in0.0 mm 0.01 in0.3 mm
03:50 PM 44.0°F6.7°C 38.9°F3.8°C 82% 10.4 mph WNW16.7 kmh WNW 18.4 mph29.6 kmh 29.95 in1014.2 mb - 0.00 in0.0 mm 0.01 in0.3 mm
03:40 PM 44.1°F6.7°C 38.9°F3.8°C 82% 13.8 mph W22.2 kmh W 20.7 mph33.3 kmh 29.94 in1013.9 mb - 0.00 in0.0 mm 0.01 in0.3 mm
03:30 PM 44.1°F6.7°C 39.0°F3.9°C 82% 9.2 mph WNW14.8 kmh WNW 17.3 mph27.8 kmh 29.94 in1013.9 mb - 0.00 in0.0 mm 0.01 in0.3 mm
03:20 PM 44.0°F6.7°C 38.9°F3.8°C 82% 13.8 mph WNW22.2 kmh WNW 25.3 mph40.7 kmh 29.94 in1013.9 mb - 0.00 in0.0 mm 0.01 in0.3 mm
03:10 PM 43.9°F6.6°C 38.8°F3.8°C 82% 10.4 mph NW16.7 kmh NW 18.4 mph29.6 kmh 29.94 in1013.9 mb - 0.00 in0.0 mm 0.01 in0.3 mm
03:00 PM 44.1°F6.7°C 38.9°F3.8°C 82% 11.5 mph WNW18.5 kmh WNW 18.4 mph29.6 kmh 29.93 in1013.5 mb - 0.00 in0.0 mm 0.01 in0.3 mm
02:50 PM 44.3°F6.8°C 39.2°F4.0°C 82% 12.7 mph WNW20.4 kmh WNW 25.3 mph40.7 kmh 29.93 in1013.5 mb - 0.00 in0.0 mm 0.01 in0.3 mm
02:40 PM 45.0°F7.2°C 40.1°F4.5°C 83% 10.4 mph WNW16.7 kmh WNW 18.4 mph29.6 kmh 29.92 in1013.2 mb - 0.00 in0.0 mm 0.01 in0.3 mm
02:30 PM 44.1°F6.7°C 39.5°F4.2°C 84% 11.5 mph WNW18.5 kmh WNW 19.6 mph31.5 kmh 29.92 in1013.2 mb - 0.00 in0.0 mm 0.01 in0.3 mm
02:20 PM 43.6°F6.4°C 39.7°F4.3°C 86% 11.5 mph WNW18.5 kmh WNW 21.9 mph35.2 kmh 29.92 in1013.2 mb - 0.00 in0.0 mm 0.01 in0.3 mm
02:10 PM 43.1°F6.2°C 39.2°F4.0°C 86% 6.9 mph W11.1 kmh W 13.8 mph22.2 kmh 29.92 in1013.2 mb - 0.00 in0.0 mm 0.01 in0.3 mm
02:00 PM 43.0°F6.1°C 39.1°F3.9°C 86% 10.4 mph WNW16.7 kmh WNW 16.1 mph25.9 kmh 29.91 in1012.9 mb - 0.00 in0.0 mm 0.01 in0.3 mm
01:50 PM 43.1°F6.2°C 39.2°F4.0°C 86% 9.2 mph WNW14.8 kmh WNW 21.9 mph35.2 kmh 29.91 in1012.9 mb - 0.00 in0.0 mm 0.01 in0.3 mm
01:40 PM 43.5°F6.4°C 39.6°F4.2°C 86% 5.8 mph W9.3 kmh W 12.7 mph20.4 kmh 29.91 in1012.9 mb - 0.00 in0.0 mm 0.01 in0.3 mm
01:30 PM 43.5°F6.4°C 39.6°F4.2°C 86% 6.9 mph NW11.1 kmh NW 15.0 mph24.1 kmh 29.90 in1012.5 mb - 0.00 in0.0 mm 0.01 in0.3 mm
01:20 PM 43.3°F6.3°C 39.7°F4.3°C 87% 6.9 mph NW11.1 kmh NW 16.1 mph25.9 kmh 29.91 in1012.9 mb - 0.00 in0.0 mm 0.01 in0.3 mm
01:10 PM 43.1°F6.2°C 39.5°F4.2°C 87% 9.2 mph WNW14.8 kmh WNW 13.8 mph22.2 kmh 29.91 in1012.9 mb - 0.00 in0.0 mm 0.01 in0.3 mm
01:00 PM 43.1°F6.2°C 39.5°F4.2°C 87% 11.5 mph WNW18.5 kmh WNW 19.6 mph31.5 kmh 29.91 in1012.9 mb - 0.00 in0.0 mm 0.01 in0.3 mm
12:50 PM 43.1°F6.2°C 39.5°F4.2°C 87% 11.5 mph WNW18.5 kmh WNW 16.1 mph25.9 kmh 29.90 in1012.5 mb - 0.00 in0.0 mm 0.01 in0.3 mm
12:40 PM 43.3°F6.3°C 39.7°F4.3°C 87% 8.1 mph WNW13.0 kmh WNW 11.5 mph18.5 kmh 29.89 in1012.2 mb - 0.00 in0.0 mm 0.01 in0.3 mm
12:30 PM 43.4°F6.3°C 39.5°F4.2°C 86% 11.5 mph WNW18.5 kmh WNW 17.3 mph27.8 kmh 29.90 in1012.5 mb - 0.00 in0.0 mm 0.01 in0.3 mm
12:20 PM 43.9°F6.6°C 39.7°F4.3°C 85% 10.4 mph NW16.7 kmh NW 17.3 mph27.8 kmh 29.89 in1012.2 mb - 0.00 in0.0 mm 0.01 in0.3 mm
12:10 PM 44.0°F6.7°C 40.1°F4.5°C 86% 6.9 mph WNW11.1 kmh WNW 19.6 mph31.5 kmh 29.89 in1012.2 mb - 0.00 in0.0 mm 0.01 in0.3 mm
12:00 PM 44.0°F6.7°C 40.1°F4.5°C 86% 5.8 mph WNW9.3 kmh WNW 17.3 mph27.8 kmh 29.88 in1011.9 mb - 0.00 in0.0 mm 0.01 in0.3 mm
11:50 AM 43.8°F6.6°C 39.9°F4.4°C 86% 8.1 mph WNW13.0 kmh WNW 18.4 mph29.6 kmh 29.88 in1011.9 mb - 0.00 in0.0 mm 0.01 in0.3 mm
11:40 AM 43.6°F6.4°C 39.7°F4.3°C 86% 6.9 mph WNW11.1 kmh WNW 12.7 mph20.4 kmh 29.88 in1011.9 mb - 0.00 in0.0 mm 0.01 in0.3 mm
11:30 AM 43.4°F6.3°C 39.8°F4.3°C 87% 9.2 mph WNW14.8 kmh WNW 13.8 mph22.2 kmh 29.88 in1011.9 mb - 0.00 in0.0 mm 0.01 in0.3 mm
11:20 AM 43.2°F6.2°C 39.6°F4.2°C 87% 8.1 mph NW13.0 kmh NW 12.7 mph20.4 kmh 29.88 in1011.9 mb - 0.00 in0.0 mm 0.01 in0.3 mm
11:00 AM 42.9°F6.1°C 39.6°F4.2°C 88% 10.4 mph WNW16.7 kmh WNW 21.9 mph35.2 kmh 29.88 in1011.9 mb - 0.00 in0.0 mm 0.01 in0.3 mm
10:50 AM 42.8°F6.0°C 39.5°F4.2°C 88% 10.4 mph WNW16.7 kmh WNW 18.4 mph29.6 kmh 29.87 in1011.5 mb - 0.00 in0.0 mm 0.01 in0.3 mm
10:40 AM 42.7°F5.9°C 39.4°F4.1°C 88% 13.8 mph WNW22.2 kmh WNW 21.9 mph35.2 kmh 29.87 in1011.5 mb - 0.00 in0.0 mm 0.01 in0.3 mm
10:30 AM 42.5°F5.8°C 39.5°F4.2°C 89% 11.5 mph W18.5 kmh W 21.9 mph35.2 kmh 29.86 in1011.2 mb - 0.00 in0.0 mm 0.01 in0.3 mm
10:20 AM 42.5°F5.8°C 39.5°F4.2°C 89% 15.0 mph WNW24.1 kmh WNW 19.6 mph31.5 kmh 29.86 in1011.2 mb - 0.00 in0.0 mm 0.01 in0.3 mm
10:10 AM 42.4°F5.8°C 39.4°F4.1°C 89% 17.3 mph WNW27.8 kmh WNW 24.2 mph38.9 kmh 29.86 in1011.2 mb - 0.00 in0.0 mm 0.01 in0.3 mm
10:00 AM 42.4°F5.8°C 39.7°F4.3°C 90% 8.1 mph WNW13.0 kmh WNW 13.8 mph22.2 kmh 29.86 in1011.2 mb - 0.00 in0.0 mm 0.01 in0.3 mm
09:50 AM 42.5°F5.8°C 39.5°F4.2°C 89% 8.1 mph WNW13.0 kmh WNW 12.7 mph20.4 kmh 29.85 in1010.8 mb - 0.00 in0.0 mm 0.01 in0.3 mm
09:40 AM 42.6°F5.9°C 39.6°F4.2°C 89% 13.8 mph WNW22.2 kmh WNW 24.2 mph38.9 kmh 29.85 in1010.8 mb - 0.00 in0.0 mm 0.01 in0.3 mm
09:30 AM 42.9°F6.1°C 39.9°F4.4°C 89% 9.2 mph WNW14.8 kmh WNW 12.7 mph20.4 kmh 29.85 in1010.8 mb - 0.00 in0.0 mm 0.01 in0.3 mm
09:20 AM 42.8°F6.0°C 39.8°F4.3°C 89% 11.5 mph WNW18.5 kmh WNW 20.7 mph33.3 kmh 29.84 in1010.5 mb - 0.00 in0.0 mm 0.01 in0.3 mm
09:10 AM 43.1°F6.2°C 40.1°F4.5°C 89% 10.4 mph WNW16.7 kmh WNW 21.9 mph35.2 kmh 29.84 in1010.5 mb - 0.00 in0.0 mm 0.01 in0.3 mm
09:00 AM 43.2°F6.2°C 40.2°F4.6°C 89% 12.7 mph WNW20.4 kmh WNW 19.6 mph31.5 kmh 29.84 in1010.5 mb - 0.00 in0.0 mm 0.01 in0.3 mm
08:50 AM 42.7°F5.9°C 40.0°F4.4°C 90% 16.1 mph WNW25.9 kmh WNW 17.3 mph27.8 kmh 29.83 in1010.2 mb - 0.00 in0.0 mm 0.01 in0.3 mm
08:40 AM 42.4°F5.8°C 39.9°F4.4°C 91% 9.2 mph WNW14.8 kmh WNW 19.6 mph31.5 kmh 29.83 in1010.2 mb - 0.00 in0.0 mm 0.01 in0.3 mm
08:30 AM 42.2°F5.7°C 39.8°F4.3°C 91% 12.7 mph WNW20.4 kmh WNW 21.9 mph35.2 kmh 29.83 in1010.2 mb - 0.00 in0.0 mm 0.01 in0.3 mm
08:20 AM 42.2°F5.7°C 40.0°F4.4°C 92% 15.0 mph WNW24.1 kmh WNW 25.3 mph40.7 kmh 29.82 in1009.8 mb - 0.00 in0.0 mm 0.01 in0.3 mm
08:10 AM 42.2°F5.7°C 40.0°F4.4°C 92% 11.5 mph WNW18.5 kmh WNW 15.0 mph24.1 kmh 29.82 in1009.8 mb - 0.00 in0.0 mm 0.01 in0.3 mm
08:00 AM 42.2°F5.7°C 40.0°F4.4°C 92% 10.4 mph WNW16.7 kmh WNW 21.9 mph35.2 kmh 29.81 in1009.5 mb - 0.01 in0.3 mm 0.01 in0.3 mm
07:50 AM 42.1°F5.6°C 39.9°F4.4°C 92% 11.5 mph WNW18.5 kmh WNW 16.1 mph25.9 kmh 29.80 in1009.1 mb - 0.01 in0.3 mm 0.01 in0.3 mm
07:40 AM 42.1°F5.6°C 39.9°F4.4°C 92% 10.4 mph WNW16.7 kmh WNW 20.7 mph33.3 kmh 29.80 in1009.1 mb - 0.01 in0.3 mm 0.01 in0.3 mm
07:30 AM 42.2°F5.7°C 40.0°F4.4°C 92% 6.9 mph WNW11.1 kmh WNW 12.7 mph20.4 kmh 29.79 in1008.8 mb - 0.01 in0.3 mm 0.01 in0.3 mm
07:20 AM 42.1°F5.6°C 40.3°F4.6°C 93% 13.8 mph WNW22.2 kmh WNW 24.2 mph38.9 kmh 29.79 in1008.8 mb - 0.01 in0.3 mm 0.01 in0.3 mm
07:10 AM 42.0°F5.6°C 40.1°F4.5°C 93% 8.1 mph NW13.0 kmh NW 6.9 mph11.1 kmh 29.79 in1008.8 mb - 0.01 in0.3 mm 0.01 in0.3 mm
07:00 AM 41.9°F5.5°C 40.0°F4.4°C 93% 3.5 mph NNW5.6 kmh NNW 6.9 mph11.1 kmh 29.79 in1008.8 mb - 0.00 in0.0 mm 0.00 in0.0 mm
06:50 AM 41.9°F5.5°C 40.0°F4.4°C 93% 5.8 mph NW9.3 kmh NW 10.4 mph16.7 kmh 29.79 in1008.8 mb - 0.00 in0.0 mm 0.00 in0.0 mm
06:40 AM 42.0°F5.6°C 40.1°F4.5°C 93% 3.5 mph NW5.6 kmh NW 9.2 mph14.8 kmh 29.78 in1008.5 mb - 0.00 in0.0 mm 0.00 in0.0 mm
06:30 AM 42.0°F5.6°C 40.1°F4.5°C 93% 6.9 mph WNW11.1 kmh WNW 11.5 mph18.5 kmh 29.78 in1008.5 mb - 0.00 in0.0 mm 0.00 in0.0 mm
06:20 AM 42.1°F5.6°C 39.9°F4.4°C 92% 6.9 mph W11.1 kmh W 20.7 mph33.3 kmh 29.77 in1008.1 mb - 0.00 in0.0 mm 0.00 in0.0 mm
06:10 AM 42.2°F5.7°C 40.0°F4.4°C 92% 8.1 mph WNW13.0 kmh WNW 16.1 mph25.9 kmh 29.77 in1008.1 mb - 0.00 in0.0 mm 0.00 in0.0 mm
06:00 AM 42.1°F5.6°C 39.9°F4.4°C 92% 12.7 mph WNW20.4 kmh WNW 20.7 mph33.3 kmh 29.77 in1008.1 mb - 0.00 in0.0 mm 0.00 in0.0 mm
05:50 AM 42.2°F5.7°C 40.0°F4.4°C 92% 9.2 mph WNW14.8 kmh WNW 20.7 mph33.3 kmh 29.76 in1007.8 mb - 0.00 in0.0 mm 0.00 in0.0 mm
05:40 AM 42.2°F5.7°C 40.3°F4.6°C 93% 11.5 mph NW18.5 kmh NW 21.9 mph35.2 kmh 29.75 in1007.5 mb - 0.00 in0.0 mm 0.00 in0.0 mm
05:30 AM 42.2°F5.7°C 40.3°F4.6°C 93% 10.4 mph WNW16.7 kmh WNW 17.3 mph27.8 kmh 29.75 in1007.5 mb - 0.00 in0.0 mm 0.00 in0.0 mm
05:20 AM 42.3°F5.7°C 40.4°F4.7°C 93% 11.5 mph WNW18.5 kmh WNW 24.2 mph38.9 kmh 29.74 in1007.1 mb - 0.00 in0.0 mm 0.00 in0.0 mm
05:10 AM 42.4°F5.8°C 40.2°F4.6°C 92% 13.8 mph NW22.2 kmh NW 16.1 mph25.9 kmh 29.74 in1007.1 mb - 0.00 in0.0 mm 0.00 in0.0 mm
05:00 AM 42.6°F5.9°C 40.4°F4.7°C 92% 6.9 mph WNW11.1 kmh WNW 12.7 mph20.4 kmh 29.74 in1007.1 mb - 0.00 in0.0 mm 0.00 in0.0 mm
04:50 AM 42.8°F6.0°C 40.6°F4.8°C 92% 11.5 mph WNW18.5 kmh WNW 15.0 mph24.1 kmh 29.73 in1006.8 mb - 0.00 in0.0 mm 0.00 in0.0 mm
04:40 AM 42.9°F6.1°C 40.5°F4.7°C 91% 12.7 mph WNW20.4 kmh WNW 20.7 mph33.3 kmh 29.72 in1006.4 mb - 0.00 in0.0 mm 0.00 in0.0 mm
04:30 AM 43.1°F6.2°C 40.7°F4.8°C 91% 9.2 mph WNW14.8 kmh WNW 20.7 mph33.3 kmh 29.72 in1006.4 mb - 0.00 in0.0 mm 0.00 in0.0 mm
04:20 AM 43.1°F6.2°C 40.7°F4.8°C 91% 12.7 mph WNW20.4 kmh WNW 18.4 mph29.6 kmh 29.71 in1006.1 mb - 0.00 in0.0 mm 0.00 in0.0 mm
04:10 AM 43.2°F6.2°C 40.8°F4.9°C 91% 16.1 mph WNW25.9 kmh WNW 31.1 mph50.1 kmh 29.71 in1006.1 mb - 0.00 in0.0 mm 0.00 in0.0 mm
04:00 AM 43.3°F6.3°C 40.6°F4.8°C 90% 13.8 mph WNW22.2 kmh WNW 24.2 mph38.9 kmh 29.70 in1005.8 mb - 0.00 in0.0 mm 0.00 in0.0 mm
03:50 AM 43.6°F6.4°C 40.6°F4.8°C 89% 17.3 mph WNW27.8 kmh WNW 28.8 mph46.3 kmh 29.70 in1005.8 mb - 0.00 in0.0 mm 0.00 in0.0 mm
03:40 AM 43.8°F6.6°C 40.5°F4.7°C 88% 13.8 mph W22.2 kmh W 18.4 mph29.6 kmh 29.69 in1005.4 mb - 0.00 in0.0 mm 0.00 in0.0 mm
03:30 AM 43.7°F6.5°C 40.4°F4.7°C 88% 13.8 mph WNW22.2 kmh WNW 29.9 mph48.1 kmh 29.69 in1005.4 mb - 0.00 in0.0 mm 0.00 in0.0 mm
03:20 AM 43.7°F6.5°C 40.1°F4.5°C 87% 13.8 mph WNW22.2 kmh WNW 26.5 mph42.6 kmh 29.69 in1005.4 mb - 0.00 in0.0 mm 0.00 in0.0 mm
03:10 AM 43.8°F6.6°C 40.2°F4.6°C 87% 13.8 mph W22.2 kmh W 25.3 mph40.7 kmh 29.68 in1005.1 mb - 0.00 in0.0 mm 0.00 in0.0 mm
03:00 AM 43.7°F6.5°C 40.1°F4.5°C 87% 13.8 mph WNW22.2 kmh WNW 21.9 mph35.2 kmh 29.68 in1005.1 mb - 0.00 in0.0 mm 0.00 in0.0 mm
02:50 AM 43.6°F6.4°C 40.3°F4.6°C 88% 13.8 mph WNW22.2 kmh WNW 32.2 mph51.8 kmh 29.68 in1005.1 mb - 0.00 in0.0 mm 0.00 in0.0 mm
02:40 AM 43.6°F6.4°C 40.3°F4.6°C 88% 15.0 mph WNW24.1 kmh WNW 19.6 mph31.5 kmh 29.67 in1004.7 mb - 0.00 in0.0 mm 0.00 in0.0 mm
02:30 AM 43.7°F6.5°C 40.4°F4.7°C 88% 13.8 mph WNW22.2 kmh WNW 16.1 mph25.9 kmh 29.67 in1004.7 mb - 0.00 in0.0 mm 0.00 in0.0 mm
02:20 AM 43.8°F6.6°C 40.5°F4.7°C 88% 12.7 mph WNW20.4 kmh WNW 21.9 mph35.2 kmh 29.66 in1004.4 mb - 0.00 in0.0 mm 0.00 in0.0 mm
02:10 AM 44.0°F6.7°C 40.7°F4.8°C 88% 13.8 mph W22.2 kmh W 18.4 mph29.6 kmh 29.66 in1004.4 mb - 0.00 in0.0 mm 0.00 in0.0 mm
02:00 AM 44.1°F6.7°C 40.8°F4.9°C 88% 12.7 mph WNW20.4 kmh WNW 28.8 mph46.3 kmh 29.66 in1004.4 mb - 0.00 in0.0 mm 0.00 in0.0 mm
01:50 AM 44.1°F6.7°C 40.8°F4.9°C 88% 12.7 mph WNW20.4 kmh WNW 28.8 mph46.3 kmh 29.66 in1004.4 mb - 0.00 in0.0 mm 0.00 in0.0 mm
01:40 AM 44.2°F6.8°C 40.9°F4.9°C 88% 17.3 mph WNW27.8 kmh WNW 17.3 mph27.8 kmh 29.65 in1004.1 mb - 0.00 in0.0 mm 0.00 in0.0 mm
01:30 AM 44.2°F6.8°C 40.9°F4.9°C 88% 13.8 mph WNW22.2 kmh WNW 16.1 mph25.9 kmh 29.64 in1003.7 mb - 0.00 in0.0 mm 0.00 in0.0 mm
01:20 AM 44.2°F6.8°C 40.9°F4.9°C 88% 16.1 mph WNW25.9 kmh WNW 21.9 mph35.2 kmh 29.64 in1003.7 mb - 0.00 in0.0 mm 0.00 in0.0 mm
01:10 AM 44.3°F6.8°C 41.0°F5.0°C 88% 19.6 mph WNW31.5 kmh WNW 32.2 mph51.8 kmh 29.63 in1003.4 mb - 0.00 in0.0 mm 0.00 in0.0 mm
01:00 AM 44.4°F6.9°C 41.1°F5.1°C 88% 19.6 mph WNW31.5 kmh WNW 28.8 mph46.3 kmh 29.63 in1003.4 mb - 0.00 in0.0 mm 0.00 in0.0 mm
12:50 AM 44.4°F6.9°C 41.1°F5.1°C 88% 17.3 mph WNW27.8 kmh WNW 38.0 mph61.2 kmh 29.63 in1003.4 mb - 0.00 in0.0 mm 0.00 in0.0 mm
12:40 AM 44.5°F6.9°C 41.2°F5.1°C 88% 19.6 mph WNW31.5 kmh WNW 31.1 mph50.1 kmh 29.62 in1003.0 mb - 0.00 in0.0 mm 0.00 in0.0 mm
12:30 AM 44.6°F7.0°C 41.3°F5.2°C 88% 16.1 mph WNW25.9 kmh WNW 20.7 mph33.3 kmh 29.62 in1003.0 mb - 0.00 in0.0 mm 0.00 in0.0 mm
12:20 AM 44.7°F7.1°C 41.4°F5.2°C 88% 18.4 mph W29.6 kmh W 32.2 mph51.8 kmh 29.61 in1002.7 mb - 0.00 in0.0 mm 0.00 in0.0 mm
12:10 AM 44.9°F7.2°C 41.6°F5.3°C 88% 17.3 mph WNW27.8 kmh WNW 25.3 mph40.7 kmh 29.61 in1002.7 mb - 0.00 in0.0 mm 0.00 in0.0 mm
12:00 AM 45.1°F7.3°C 41.8°F5.4°C 88% 17.3 mph WNW27.8 kmh WNW 26.5 mph42.6 kmh 29.61 in1002.7 mb - 0.00 in0.0 mm 0.00 in0.0 mm